createdAt,value
2018-12-17T00:00:59.823Z,97301.73
2018-12-17T00:11:19.081Z,97304.94
2018-12-17T00:21:39.760Z,97305.59
2018-12-17T00:31:59.353Z,97308.63
2018-12-17T00:42:19.408Z,97306.88
2018-12-17T00:52:38.641Z,97306.88
2018-12-17T01:02:59.270Z,97344.78
2018-12-17T01:13:19.166Z,97344.78
2018-12-17T01:23:38.693Z,97350.51
2018-12-17T01:33:58.634Z,97348.89
2018-12-17T01:44:18.401Z,97358.84
2018-12-17T01:54:37.814Z,97351.85
2018-12-17T02:04:57.724Z,97351.85
2018-12-17T02:15:23.351Z,97356.34
2018-12-17T02:25:43.398Z,97327.95
2018-12-17T02:36:02.971Z,97327.95
2018-12-17T02:46:22.571Z,97358.26
2018-12-17T02:56:41.762Z,97358.26
2018-12-17T03:07:01.373Z,97362.51
2018-12-17T03:17:21.345Z,97356.80
2018-12-17T03:27:41.042Z,97354.10
2018-12-17T03:38:02.062Z,97347.48
2018-12-17T03:48:21.577Z,97361.77
2018-12-17T03:58:41.026Z,97369.95
2018-12-17T04:09:00.612Z,97381.30
2018-12-17T04:19:20.529Z,97382.61
2018-12-17T04:29:39.893Z,97395.83
2018-12-17T04:39:59.609Z,97397.73
2018-12-17T04:50:18.972Z,97403.63
2018-12-17T05:00:38.066Z,97418.02
2018-12-17T05:10:57.308Z,97432.66
2018-12-17T05:21:17.047Z,97437.89
2018-12-17T05:31:36.753Z,97450.49
2018-12-17T05:41:56.042Z,97460.63
2018-12-17T05:52:16.345Z,97467.43
2018-12-17T06:02:35.456Z,97472.05
2018-12-17T06:12:55.791Z,97480.77
2018-12-17T06:23:16.383Z,97496.25
2018-12-17T06:33:37.165Z,97510.91
2018-12-17T06:43:57.569Z,97529.69
2018-12-17T06:54:18.441Z,97529.69
2018-12-17T07:04:37.922Z,97556.33
2018-12-17T07:14:57.932Z,97564.63
2018-12-17T07:25:17.512Z,97581.05
2018-12-17T07:35:37.201Z,97581.05
2018-12-17T07:45:56.930Z,97601.71
2018-12-17T07:56:16.685Z,97619.12
2018-12-17T08:06:37.115Z,97631.89
2018-12-17T08:16:56.494Z,97660.92
2018-12-17T08:27:15.992Z,97660.92
2018-12-17T08:37:35.787Z,97675.28
2018-12-17T08:47:55.334Z,97675.28
2018-12-17T08:58:14.816Z,97695.85
2018-12-17T09:08:35.700Z,97708.58
2018-12-17T09:18:56.019Z,97715.02
2018-12-17T09:29:16.129Z,97729.90
2018-12-17T09:39:35.727Z,97740.61
2018-12-17T09:49:55.574Z,97731.87
2018-12-17T10:00:15.474Z,97742.27
2018-12-17T10:10:34.816Z,97743.78
2018-12-17T10:20:54.306Z,97739.89
2018-12-17T10:31:13.755Z,97735.38
2018-12-17T10:41:33.678Z,97734.34
2018-12-17T10:51:53.211Z,97738.70
2018-12-17T11:02:16.676Z,97746.27
2018-12-17T11:12:37.595Z,97759.08
2018-12-17T11:22:56.789Z,97756.38
2018-12-17T11:33:15.915Z,97759.38
2018-12-17T11:43:35.906Z,97762.60
2018-12-17T11:54:00.924Z,97774.25
2018-12-17T12:04:22.727Z,97768.22
2018-12-17T12:14:44.512Z,97781.95
2018-12-17T12:25:06.307Z,97793.31
2018-12-17T12:35:25.825Z,97800.81
2018-12-17T12:45:48.117Z,97807.63
2018-12-17T12:56:08.668Z,97818.54
2018-12-17T13:06:29.719Z,97832.88
2018-12-17T13:16:50.051Z,97844.70
2018-12-17T13:27:11.035Z,97866.13
2018-12-17T13:37:30.564Z,97884.44
2018-12-17T13:47:51.081Z,97892.93
2018-12-17T13:58:11.215Z,97908.91
2018-12-17T14:08:30.790Z,97929.56
2018-12-17T14:19:09.567Z,97943.31
2018-12-17T14:29:29.712Z,97955.81
2018-12-17T14:39:49.422Z,97972.14
2018-12-17T14:50:09.493Z,97986.92
2018-12-17T15:00:28.912Z,97984.45
2018-12-17T15:10:48.423Z,98010.56
2018-12-17T15:21:08.783Z,98023.83
2018-12-17T15:31:28.429Z,98028.59
2018-12-17T15:41:47.590Z,98044.67
2018-12-17T15:52:07.820Z,98047.58
2018-12-17T16:02:28.119Z,98078.72
2018-12-17T16:12:47.548Z,98082.89
2018-12-17T16:23:07.066Z,98094.88
2018-12-17T16:33:29.999Z,98106.34
2018-12-17T16:43:46.877Z,98124.09
2018-12-17T16:54:07.072Z,98137.56
2018-12-17T17:04:27.193Z,98151.91
2018-12-17T17:14:48.334Z,98164.70
2018-12-17T17:25:07.764Z,98179.02
2018-12-17T17:35:29.007Z,98189.00
2018-12-17T17:45:49.233Z,98201.67
2018-12-17T17:56:09.889Z,98224.05
2018-12-17T18:06:29.910Z,98236.50
2018-12-17T18:16:50.282Z,98245.94
2018-12-17T18:27:11.512Z,98248.55
2018-12-17T18:37:34.253Z,98262.89
2018-12-17T18:47:53.762Z,98272.02
2018-12-17T18:58:14.777Z,98263.11
2018-12-17T19:08:36.189Z,98274.27
2018-12-17T19:18:56.366Z,98281.73
2018-12-17T19:29:15.904Z,98276.48
2018-12-17T19:39:36.500Z,98286.72
2018-12-17T19:49:56.821Z,98297.81
2018-12-17T20:00:18.698Z,98292.64
2018-12-17T20:10:39.462Z,98289.62
2018-12-17T20:20:59.504Z,98302.90
2018-12-17T20:31:20.519Z,98308.70
2018-12-17T20:41:41.045Z,98312.77
2018-12-17T20:52:02.869Z,98328.61
2018-12-17T21:02:22.182Z,98328.61
2018-12-17T21:12:43.342Z,98317.63
2018-12-17T21:23:04.409Z,98323.39
2018-12-17T21:33:24.034Z,98327.78
2018-12-17T21:43:44.592Z,98325.05
2018-12-17T21:54:04.131Z,98332.52
2018-12-17T22:04:24.410Z,98336.59
2018-12-17T22:14:46.212Z,98347.27
2018-12-17T22:25:05.996Z,98349.55
2018-12-17T22:35:26.075Z,98345.87
2018-12-17T22:45:45.708Z,98334.84
2018-12-17T22:56:05.439Z,98333.78
2018-12-17T23:06:25.909Z,98323.70
2018-12-17T23:17:22.119Z,98331.22
2018-12-17T23:27:48.597Z,98322.50
2018-12-17T23:38:08.233Z,98330.11
2018-12-17T23:48:28.405Z,98332.48
2018-12-17T23:58:47.811Z,98339.99
